Time;durP1;ratioP1;P1;durP2;ratioP2;P2;SDS_P1;SDS_P2;PMS_P1;PMS_P2;Temp;Humidity;BMP_temperature;BMP_pressure;BME280_temperature;BME280_humidity;BME280_pressure;Samples;Min_cycle;Max_cycle;Signal;HPM_P1;HPM_P2
2022/03/11 00:13:08;;;;;;;16.77;12.17;;;7.30;48.50;;;;;;5069679;28;20550;-64
2022/03/11 00:15:34;;;;;;;18.00;12.83;;;7.30;48.50;;;;;;5072778;28;20051;-63
2022/03/11 00:18:00;;;;;;;15.93;12.23;;;7.30;48.50;;;;;;5072268;28;20045;-63
2022/03/11 00:20:26;;;;;;;18.67;11.33;;;7.30;48.50;;;;;;5072854;28;20033;-64
2022/03/11 00:22:52;;;;;;;17.60;11.70;;;7.30;48.90;;;;;;5072971;28;20035;-66
2022/03/11 00:25:19;;;;;;;22.53;12.47;;;7.20;49.10;;;;;;5072650;28;20051;-64
2022/03/11 00:27:45;;;;;;;18.67;11.77;;;7.20;48.50;;;;;;5072825;28;20033;-64
2022/03/11 00:30:11;;;;;;;24.90;12.57;;;7.20;48.60;;;;;;5072612;28;20067;-63
2022/03/11 00:32:37;;;;;;;17.20;11.60;;;7.20;48.80;;;;;;5072532;28;20033;-65
2022/03/11 00:35:07;;;;;;;17.20;12.03;;;7.20;48.40;;;;;;5072276;28;20047;-63
2022/03/11 00:37:32;;;;;;;22.97;12.13;;;7.20;48.20;;;;;;5072807;28;20044;-65
2022/03/11 00:39:58;;;;;;;22.73;12.67;;;7.10;48.70;;;;;;5072690;28;20024;-63
2022/03/11 00:42:24;;;;;;;19.90;13.03;;;7.10;48.90;;;;;;5072274;28;20504;-64
2022/03/11 00:44:49;;;;;;;17.47;12.23;;;7.00;49.20;;;;;;5073765;28;20052;-63
2022/03/11 00:47:43;;;;;;;18.67;12.80;;;7.00;48.80;;;;;;5076432;28;20025;-63
2022/03/11 00:50:09;;;;;;;;;;;7.10;49.20;;;;;;5076842;28;20071;-64
2022/03/11 00:52:34;;;;;;;20.30;11.93;;;7.10;48.60;;;;;;5076400;28;19939;-63
2022/03/11 00:55:03;;;;;;;18.20;11.50;;;7.10;48.10;;;;;;5076360;28;20035;-63
2022/03/11 00:57:28;;;;;;;17.33;11.70;;;7.10;48.50;;;;;;5076130;28;20041;-63
2022/03/11 00:59:54;;;;;;;16.53;11.40;;;7.10;48.90;;;;;;5076151;28;20059;-63
2022/03/11 01:02:20;;;;;;;16.83;11.60;;;7.00;48.90;;;;;;5075900;28;20073;-67
2022/03/11 01:04:48;;;;;;;18.63;11.87;;;7.00;49.00;;;;;;5075922;28;20056;-67
2022/03/11 01:07:14;;;;;;;16.07;11.30;;;7.00;48.80;;;;;;5075891;28;20067;-63
2022/03/11 01:09:52;;;;;;;15.37;12.17;;;7.00;48.50;;;;;;5076069;28;20060;-63
2022/03/11 01:12:18;;;;;;;17.23;10.53;;;7.00;48.20;;;;;;5075499;28;20221;-63
2022/03/11 01:14:44;;;;;;;15.70;10.63;;;7.00;48.30;;;;;;5075742;28;20031;-63
2022/03/11 01:17:11;;;;;;;13.90;10.33;;;7.00;47.60;;;;;;5075807;28;20053;-67
2022/03/11 01:19:36;;;;;;;14.63;10.07;;;7.00;47.90;;;;;;5075951;28;20469;-67
2022/03/11 01:22:02;;;;;;;19.17;10.37;;;7.00;48.70;;;;;;5075762;28;20086;-66
2022/03/11 01:24:28;;;;;;;19.03;11.30;;;7.00;48.30;;;;;;5075313;28;20484;-67
2022/03/11 01:26:54;;;;;;;16.60;11.53;;;7.00;48.40;;;;;;5075521;28;20080;-67
2022/03/11 01:29:19;;;;;;;16.60;11.17;;;6.90;48.60;;;;;;5075803;28;20101;-67
2022/03/11 01:31:45;;;;;;;15.37;10.47;;;6.80;48.60;;;;;;5075565;28;20041;-63
2022/03/11 01:34:11;;;;;;;17.63;10.67;;;6.80;49.50;;;;;;5075470;28;20123;-67
2022/03/11 01:36:36;;;;;;;13.87;10.73;;;6.80;48.70;;;;;;5075193;28;20388;-67
2022/03/11 01:39:03;;;;;;;18.00;10.47;;;6.80;49.10;;;;;;5075332;28;20094;-64
2022/03/11 01:41:28;;;;;;;17.27;11.03;;;6.80;48.70;;;;;;5075326;28;20035;-64
2022/03/11 01:43:59;;;;;;;18.70;11.10;;;6.80;48.80;;;;;;5075367;28;20032;-64
2022/03/11 01:46:25;;;;;;;14.97;11.07;;;6.80;48.70;;;;;;5075145;28;20024;-65
2022/03/11 01:48:51;;;;;;;16.30;10.57;;;6.70;48.70;;;;;;5075282;28;20111;-63
2022/03/11 01:51:17;;;;;;;15.53;10.37;;;6.70;48.80;;;;;;5075018;28;20082;-67
2022/03/11 01:53:44;;;;;;;19.27;11.03;;;6.70;49.10;;;;;;5075152;28;20554;-63
2022/03/11 01:56:10;;;;;;;16.57;10.13;;;6.60;48.70;;;;;;5073949;28;20096;-67
2022/03/11 01:58:37;;;;;;;16.00;11.17;;;6.60;49.60;;;;;;5072947;28;20048;-63
2022/03/11 02:01:03;;;;;;;17.13;11.23;;;6.60;49.30;;;;;;5072018;28;20032;-64
2022/03/11 02:03:29;;;;;;;22.90;11.07;;;6.60;48.90;;;;;;5072197;28;20663;-64
2022/03/11 02:05:55;;;;;;;16.33;11.27;;;6.60;48.80;;;;;;5074369;28;20037;-63
2022/03/11 02:08:21;;;;;;;17.73;10.60;;;6.70;49.30;;;;;;5074781;28;20028;-64
2022/03/11 02:10:46;;;;;;;18.30;11.07;;;6.70;48.80;;;;;;5074713;28;20040;-66
2022/03/11 02:13:12;;;;;;;14.80;10.47;;;6.70;48.90;;;;;;5074303;28;20071;-63
2022/03/11 02:15:38;;;;;;;16.63;10.40;;;6.70;48.70;;;;;;5074522;28;20036;-67
2022/03/11 02:18:03;;;;;;;15.43;11.07;;;6.70;48.10;;;;;;5074529;28;20044;-63
2022/03/11 02:20:29;;;;;;;17.57;11.43;;;6.70;48.00;;;;;;5074332;28;20524;-63
2022/03/11 02:22:57;;;;;;;15.13;10.73;;;6.70;47.90;;;;;;5074461;28;20040;-66
2022/03/11 02:25:23;;;;;;;16.33;11.47;;;6.70;47.50;;;;;;5074560;28;20036;-63
2022/03/11 02:27:49;;;;;;;15.27;10.50;;;6.70;47.70;;;;;;5074157;28;20561;-63
2022/03/11 02:30:20;;;;;;;16.07;9.70;;;6.70;48.30;;;;;;5074366;28;20199;-63
2022/03/11 02:32:46;;;;;;;13.70;10.00;;;6.60;48.30;;;;;;5074453;28;20455;-63
2022/03/11 02:35:12;;;;;;;14.87;10.60;;;6.60;48.30;;;;;;5074000;28;20025;-66
2022/03/11 02:37:38;;;;;;;14.33;10.47;;;6.60;48.30;;;;;;5073866;28;20041;-63
2022/03/11 02:40:05;;;;;;;17.50;9.90;;;6.60;48.10;;;;;;5073992;28;20085;-63
2022/03/11 02:42:31;;;;;;;16.53;11.10;;;6.60;48.10;;;;;;5073651;28;20499;-67
2022/03/11 02:45:02;;;;;;;12.73;9.57;;;6.60;48.30;;;;;;5074161;28;20037;-66
2022/03/11 02:47:28;;;;;;;14.67;9.47;;;6.60;47.90;;;;;;5073965;28;20473;-63
2022/03/11 02:49:54;;;;;;;14.47;10.30;;;6.60;47.40;;;;;;5073916;28;20036;-63
2022/03/11 02:52:21;;;;;;;15.57;9.93;;;6.70;47.40;;;;;;5073677;28;20422;-64
2022/03/11 02:54:48;;;;;;;14.93;10.17;;;6.70;47.90;;;;;;5074000;28;20381;-63
2022/03/11 02:57:14;;;;;;;13.20;9.53;;;6.70;48.30;;;;;;5073959;28;20400;-63
2022/03/11 02:59:40;;;;;;;15.53;10.77;;;6.70;48.30;;;;;;5073933;28;20045;-67
2022/03/11 03:02:05;;;;;;;16.00;10.57;;;6.70;47.30;;;;;;5073716;28;20103;-65
2022/03/11 03:04:31;;;;;;;15.23;10.10;;;6.70;47.80;;;;;;5073739;28;20029;-66
2022/03/11 03:06:57;;;;;;;15.50;10.27;;;6.80;47.70;;;;;;5073642;28;20033;-63
2022/03/11 03:09:22;;;;;;;14.10;9.90;;;6.80;47.40;;;;;;5073559;28;20111;-65
2022/03/11 03:11:48;;;;;;;14.23;9.93;;;6.80;47.10;;;;;;5073352;28;20045;-63
2022/03/11 03:14:14;;;;;;;17.17;10.13;;;6.90;47.00;;;;;;5073705;28;20040;-63
2022/03/11 03:16:39;;;;;;;13.30;9.53;;;6.90;47.10;;;;;;5073587;28;20127;-63
2022/03/11 03:19:05;;;;;;;16.03;10.20;;;6.90;46.70;;;;;;5073511;28;20045;-66
2022/03/11 03:21:31;;;;;;;19.77;10.37;;;6.90;46.70;;;;;;5074030;28;20033;-64
2022/03/11 03:23:56;;;;;;;14.57;9.43;;;6.90;46.60;;;;;;5073206;28;20465;-63
2022/03/11 03:26:22;;;;;;;15.67;9.73;;;6.90;46.40;;;;;;5073459;28;20465;-63
2022/03/11 03:28:47;;;;;;;14.87;10.30;;;6.90;46.50;;;;;;5073520;28;20457;-64
2022/03/11 03:31:16;;;;;;;15.17;9.83;;;6.90;46.40;;;;;;5073400;28;20028;-66
2022/03/11 03:33:42;;;;;;;14.80;9.37;;;6.90;46.70;;;;;;5073284;28;20060;-66
2022/03/11 03:36:08;;;;;;;15.97;9.27;;;6.90;47.20;;;;;;5072984;28;20075;-63
2022/03/11 03:38:33;;;;;;;14.33;9.67;;;6.90;46.70;;;;;;5073410;28;20040;-63
2022/03/11 03:40:59;;;;;;;13.63;9.33;;;7.00;46.20;;;;;;5073264;28;20029;-63
2022/03/11 03:43:25;;;;;;;15.47;9.63;;;7.00;46.10;;;;;;5073011;28;20044;-63
2022/03/11 03:45:50;;;;;;;16.80;9.10;;;7.00;46.10;;;;;;5073144;28;20502;-64
2022/03/11 03:48:16;;;;;;;16.50;9.77;;;7.00;46.20;;;;;;5072808;28;20032;-66
2022/03/11 03:50:42;;;;;;;15.83;9.50;;;7.00;46.00;;;;;;5073189;28;20158;-63
2022/03/11 03:53:07;;;;;;;16.07;9.70;;;7.00;46.10;;;;;;5073183;28;20511;-63
2022/03/11 03:55:33;;;;;;;12.83;9.17;;;7.00;45.90;;;;;;5073235;28;20036;-63
2022/03/11 03:57:59;;;;;;;12.63;9.00;;;7.00;45.70;;;;;;5072700;28;20048;-64
2022/03/11 04:00:25;;;;;;;14.13;9.10;;;7.00;45.90;;;;;;5073062;28;20547;-67
2022/03/11 04:02:52;;;;;;;13.13;9.43;;;7.00;47.00;;;;;;5072882;28;20074;-64
2022/03/11 04:05:18;;;;;;;14.57;10.03;;;7.00;46.90;;;;;;5072700;28;20098;-63
2022/03/11 04:07:45;;;;;;;13.50;8.87;;;7.00;47.10;;;;;;5073171;28;20055;-63
2022/03/11 04:10:12;;;;;;;13.07;8.90;;;7.00;48.30;;;;;;5072753;28;20040;-63
2022/03/11 04:12:38;;;;;;;12.87;9.00;;;7.00;47.50;;;;;;5072582;28;20484;-63
2022/03/11 04:15:05;;;;;;;12.43;9.27;;;7.00;47.70;;;;;;5072599;28;20036;-64
2022/03/11 04:17:31;;;;;;;13.17;9.27;;;7.00;46.90;;;;;;5072581;28;20122;-64
2022/03/11 04:19:56;;;;;;;13.77;9.50;;;7.00;46.60;;;;;;5074256;28;20037;-67
2022/03/11 04:22:22;;;;;;;12.73;9.17;;;7.00;45.80;;;;;;5076893;28;20025;-63
2022/03/11 04:24:48;;;;;;;14.97;9.13;;;7.00;46.20;;;;;;5076810;28;20476;-63
2022/03/11 04:27:14;;;;;;;12.90;9.23;;;7.00;47.00;;;;;;5076536;28;20489;-67
2022/03/11 04:29:40;;;;;;;14.90;9.50;;;7.00;47.80;;;;;;5076947;28;20025;-63
2022/03/11 04:32:06;;;;;;;13.53;10.10;;;7.00;49.10;;;;;;5076744;28;20039;-63
2022/03/11 04:34:31;;;;;;;14.33;9.77;;;7.00;47.40;;;;;;5076636;28;20028;-63
2022/03/11 04:36:57;;;;;;;14.93;9.27;;;7.00;47.40;;;;;;5076806;28;20047;-63
2022/03/11 04:39:26;;;;;;;14.37;10.23;;;7.10;46.40;;;;;;5076611;28;20086;-63
2022/03/11 04:41:53;;;;;;;16.03;9.67;;;7.10;45.80;;;;;;5076725;28;20029;-67
2022/03/11 04:44:19;;;;;;;21.03;10.63;;;7.20;46.10;;;;;;5076443;28;20029;-63
2022/03/11 04:46:46;;;;;;;13.83;9.70;;;7.20;46.50;;;;;;5076322;28;20060;-63
2022/03/11 04:49:12;;;;;;;12.93;9.93;;;7.20;46.50;;;;;;5076593;28;20455;-64
2022/03/11 04:51:38;;;;;;;17.57;9.70;;;7.20;47.00;;;;;;5076202;28;20396;-63
2022/03/11 04:54:07;;;;;;;16.87;9.43;;;7.20;47.00;;;;;;5076434;28;20112;-63
2022/03/11 04:56:33;;;;;;;13.63;9.80;;;7.20;46.30;;;;;;5076279;28;20032;-63
2022/03/11 04:58:59;;;;;;;14.30;10.07;;;7.20;46.60;;;;;;5075944;28;20547;-63
2022/03/11 05:01:25;;;;;;;13.00;9.40;;;7.20;46.30;;;;;;5076138;28;20033;-64
2022/03/11 05:03:51;;;;;;;13.23;9.90;;;7.20;46.60;;;;;;5075993;28;20115;-64
2022/03/11 05:06:17;;;;;;;14.33;9.57;;;7.20;46.60;;;;;;5076067;28;20071;-65
2022/03/11 05:08:43;;;;;;;20.47;10.53;;;7.20;46.10;;;;;;5076055;28;20029;-64
2022/03/11 05:11:10;;;;;;;13.07;9.13;;;7.20;45.80;;;;;;5076119;28;20045;-63
2022/03/11 05:13:36;;;;;;;13.07;9.23;;;7.20;45.60;;;;;;5075480;28;20446;-67
2022/03/11 05:16:01;;;;;;;15.70;10.10;;;7.30;45.30;;;;;;5075843;28;20393;-64
2022/03/11 05:18:27;;;;;;;14.57;10.20;;;7.20;45.50;;;;;;5075889;28;20036;-63
2022/03/11 05:20:53;;;;;;;22.87;10.47;;;7.20;45.50;;;;;;5076019;28;20036;-63
2022/03/11 05:23:19;;;;;;;19.67;10.40;;;7.30;45.30;;;;;;5075420;28;20592;-63
2022/03/11 05:25:45;;;;;;;15.83;10.47;;;7.20;45.10;;;;;;5075567;28;20040;-63
2022/03/11 05:28:11;;;;;;;18.00;10.40;;;7.20;45.80;;;;;;5075876;28;20028;-64
2022/03/11 05:30:37;;;;;;;20.10;10.50;;;7.20;46.20;;;;;;5076053;28;20024;-63
2022/03/11 05:33:04;;;;;;;20.57;10.20;;;7.20;45.70;;;;;;5075227;28;20467;-63
2022/03/11 05:35:30;;;;;;;17.97;10.20;;;7.20;46.20;;;;;;5075868;28;20039;-67
2022/03/11 05:37:56;;;;;;;16.47;10.53;;;7.20;46.30;;;;;;5075269;28;20120;-64
2022/03/11 05:40:21;;;;;;;22.10;9.97;;;7.20;46.50;;;;;;5075364;28;20528;-64
2022/03/11 05:42:47;;;;;;;17.70;9.73;;;7.20;45.90;;;;;;5075385;28;20072;-64
2022/03/11 05:45:13;;;;;;;17.03;9.53;;;7.20;46.10;;;;;;5075080;28;20373;-64
2022/03/11 05:47:39;;;;;;;18.70;10.60;;;7.20;45.40;;;;;;5075203;28;20036;-64
2022/03/11 05:50:05;;;;;;;14.70;9.70;;;7.30;44.40;;;;;;5075272;28;20033;-67
2022/03/11 05:52:34;;;;;;;17.40;10.07;;;7.30;44.80;;;;;;5075326;28;20040;-64
2022/03/11 05:54:59;;;;;;;15.70;9.50;;;7.40;43.90;;;;;;5075304;28;20106;-63
2022/03/11 05:57:25;;;;;;;21.87;9.67;;;7.40;45.20;;;;;;5075442;28;20465;-66
2022/03/11 05:59:51;;;;;;;18.10;10.53;;;7.30;45.90;;;;;;5075110;28;20051;-63
2022/03/11 06:02:16;;;;;;;14.83;10.17;;;7.30;45.60;;;;;;5074653;28;20040;-63
2022/03/11 06:04:42;;;;;;;16.50;9.70;;;7.30;45.40;;;;;;5074858;28;20115;-64
2022/03/11 06:07:08;;;;;;;18.50;10.53;;;7.30;45.00;;;;;;5074834;28;20392;-63
2022/03/11 06:09:34;;;;;;;15.97;9.63;;;7.30;44.60;;;;;;5074778;28;20036;-64
2022/03/11 06:11:59;;;;;;;15.27;9.67;;;7.30;45.20;;;;;;5074614;28;20056;-63
2022/03/11 06:14:25;;;;;;;20.20;10.37;;;7.30;44.60;;;;;;5074688;28;20055;-62
2022/03/11 06:16:51;;;;;;;18.50;10.13;;;7.30;44.20;;;;;;5074535;28;20036;-63
2022/03/11 06:19:17;;;;;;;15.47;10.30;;;7.30;44.00;;;;;;5074866;28;20048;-64
2022/03/11 06:21:42;;;;;;;16.33;9.80;;;7.30;45.00;;;;;;5074634;28;20029;-63
2022/03/11 06:24:08;;;;;;;13.23;9.50;;;7.30;44.90;;;;;;5074604;28;20039;-63
2022/03/11 06:26:34;;;;;;;17.73;10.27;;;7.30;45.70;;;;;;5074634;28;20028;-66
2022/03/11 06:28:59;;;;;;;15.50;9.33;;;7.30;45.20;;;;;;5074304;28;20053;-67
2022/03/11 06:31:25;;;;;;;19.87;9.80;;;7.30;45.10;;;;;;5074432;28;20086;-65
2022/03/11 06:33:51;;;;;;;19.07;9.57;;;7.30;45.50;;;;;;5074514;28;20040;-63
2022/03/11 06:36:17;;;;;;;26.30;10.70;;;7.30;44.70;;;;;;5073914;28;20112;-63
2022/03/11 06:38:43;;;;;;;18.37;10.03;;;7.30;47.10;;;;;;5073648;28;20044;-63
2022/03/11 06:41:08;;;;;;;13.83;9.13;;;7.30;45.50;;;;;;5073630;28;20127;-63
2022/03/11 06:43:34;;;;;;;13.93;9.47;;;7.40;44.10;;;;;;5073116;28;20048;-63
2022/03/11 06:46:00;;;;;;;17.87;9.50;;;7.40;43.60;;;;;;5074081;28;20036;-63
2022/03/11 06:48:25;;;;;;;16.97;10.13;;;7.40;43.20;;;;;;5073923;28;20090;-63
2022/03/11 06:50:52;;;;;;;25.30;9.83;;;7.40;43.60;;;;;;5073921;28;20033;-64
2022/03/11 06:53:18;;;;;;;15.90;9.73;;;7.50;42.70;;;;;;5073882;28;20556;-67
2022/03/11 06:55:44;;;;;;;17.67;9.90;;;7.50;42.50;;;;;;5073785;28;20039;-63
2022/03/11 06:58:10;;;;;;;16.33;9.40;;;7.50;42.70;;;;;;5073487;28;20363;-63
2022/03/11 07:00:35;;;;;;;13.30;9.17;;;7.50;43.00;;;;;;5073251;28;20101;-65
2022/03/11 07:03:02;;;;;;;16.97;9.37;;;7.50;43.40;;;;;;5073416;28;20109;-65
2022/03/11 07:05:28;;;;;;;22.17;9.40;;;7.50;43.70;;;;;;5073660;28;20039;-65
2022/03/11 07:07:53;;;;;;;18.20;9.87;;;7.60;43.10;;;;;;5071259;28;20040;-64
2022/03/11 07:10:20;;;;;;;18.37;10.47;;;7.60;42.70;;;;;;5069709;28;20044;-64
2022/03/11 07:12:46;;;;;;;18.23;9.20;;;7.60;44.00;;;;;;5070220;28;20060;-66
2022/03/11 07:15:11;;;;;;;16.13;10.07;;;7.60;43.50;;;;;;5072527;28;20491;-68
2022/03/11 07:17:37;;;;;;;17.70;9.73;;;7.50;43.80;;;;;;5073172;28;20041;-67
2022/03/11 07:20:04;;;;;;;15.67;9.87;;;7.50;43.90;;;;;;5073032;28;20116;-63
2022/03/11 07:22:31;;;;;;;14.67;9.97;;;7.50;43.20;;;;;;5073085;28;20507;-62
2022/03/11 07:24:59;;;;;;;21.03;9.73;;;7.50;44.30;;;;;;5073003;28;20048;-63
2022/03/11 07:27:25;;;;;;;16.73;9.33;;;7.50;44.50;;;;;;5069900;28;20042;-63
2022/03/11 07:29:51;;;;;;;15.80;9.37;;;7.50;44.40;;;;;;5070164;28;20044;-63
2022/03/11 07:32:17;;;;;;;14.63;9.67;;;7.50;43.70;;;;;;5071751;28;20519;-62
2022/03/11 07:34:43;;;;;;;19.37;10.40;;;7.50;44.60;;;;;;5070957;28;20123;-62
2022/03/11 07:37:12;;;;;;;20.10;9.47;;;7.50;45.00;;;;;;5069994;28;20112;-66
2022/03/11 07:39:41;;;;;;;16.57;10.00;;;7.50;46.80;;;;;;5071107;28;20041;-62
2022/03/11 07:42:07;;;;;;;15.13;9.53;;;7.50;47.40;;;;;;5069828;28;20075;-62
2022/03/11 07:44:33;;;;;;;16.37;9.37;;;7.50;47.50;;;;;;5065580;28;20039;-61
2022/03/11 07:46:59;;;;;;;16.47;9.03;;;7.50;47.40;;;;;;5062296;28;20029;-62
2022/03/11 07:49:27;;;;;;;20.23;10.00;;;7.50;48.00;;;;;;5072575;28;20032;-63
2022/03/11 07:51:53;;;;;;;17.20;10.10;;;7.50;45.90;;;;;;5069864;28;20412;-68
2022/03/11 07:54:18;;;;;;;21.90;9.97;;;7.60;48.40;;;;;;5065241;28;20017;-62
2022/03/11 07:56:44;;;;;;;20.63;10.60;;;7.60;48.00;;;;;;5072664;28;20036;-63
2022/03/11 07:59:10;;;;;;;22.07;9.97;;;7.60;47.00;;;;;;5072561;28;20068;-62
2022/03/11 08:01:35;;;;;;;28.43;10.67;;;7.60;47.30;;;;;;5072766;28;20396;-62
2022/03/11 08:04:04;;;;;;;28.90;10.83;;;7.70;44.60;;;;;;5072851;28;20032;-63
2022/03/11 08:06:30;;;;;;;18.80;9.97;;;7.70;44.10;;;;;;5072748;28;20032;-62
2022/03/11 08:08:56;;;;;;;22.33;9.97;;;7.70;44.10;;;;;;5065722;28;20119;-63
2022/03/11 08:11:22;;;;;;;20.47;10.07;;;7.80;42.80;;;;;;5068293;28;20028;-62
2022/03/11 08:13:49;;;;;;;18.90;10.50;;;7.80;43.10;;;;;;5069592;28;20044;-62
2022/03/11 08:16:22;;;;;;;20.17;9.67;;;7.80;43.20;;;;;;5071954;28;20024;-62
2022/03/11 08:18:50;;;;;;;18.53;10.70;;;7.70;43.00;;;;;;5066626;28;20127;-63
2022/03/11 08:21:19;;;;;;;20.37;9.67;;;7.70;43.00;;;;;;5065318;28;20055;-62
2022/03/11 08:23:47;;;;;;;17.00;10.07;;;7.70;42.90;;;;;;5063487;28;20040;-63
2022/03/11 08:26:13;;;;;;;14.20;10.17;;;7.70;43.60;;;;;;5065740;28;20033;-62
2022/03/11 08:28:50;;;;;;;17.77;10.13;;;7.80;43.40;;;;;;5058400;28;20184;-62
2022/03/11 08:31:17;;;;;;;15.30;9.83;;;7.80;43.00;;;;;;5052718;28;20477;-62
2022/03/11 08:33:43;;;;;;;17.67;9.67;;;7.80;42.80;;;;;;5052826;28;20515;-62
2022/03/11 08:36:09;;;;;;;21.00;10.23;;;7.80;43.30;;;;;;5058313;28;20044;-62
2022/03/11 08:38:34;;;;;;;14.83;9.97;;;7.80;43.30;;;;;;5069133;28;20135;-61
2022/03/11 08:41:02;;;;;;;21.40;10.27;;;7.80;43.00;;;;;;5072588;28;20457;-62
2022/03/11 08:43:28;;;;;;;19.20;10.63;;;7.80;42.80;;;;;;5072520;28;20068;-62
2022/03/11 08:45:54;;;;;;;19.40;9.63;;;7.80;43.10;;;;;;5072536;28;20075;-62
2022/03/11 08:48:19;;;;;;;14.87;9.93;;;7.80;42.50;;;;;;5072588;28;20573;-62
2022/03/11 08:50:45;;;;;;;17.57;9.23;;;7.90;42.80;;;;;;5072730;28;20037;-61
2022/03/11 08:53:11;;;;;;;13.63;9.97;;;7.90;42.90;;;;;;5072381;28;20044;-62
2022/03/11 08:55:37;;;;;;;16.20;9.93;;;7.90;42.20;;;;;;5072570;28;20029;-61
2022/03/11 08:58:03;;;;;;;16.30;9.43;;;7.90;42.60;;;;;;5072372;28;20067;-61
2022/03/11 09:00:29;;;;;;;21.13;9.67;;;7.90;43.00;;;;;;5072463;28;20028;-67
2022/03/11 09:02:54;;;;;;;14.10;9.70;;;7.90;41.60;;;;;;5072628;28;20383;-66
2022/03/11 09:05:20;;;;;;;25.80;9.20;;;7.90;41.50;;;;;;5073033;28;20078;-62
2022/03/11 09:07:48;;;;;;;13.97;8.50;;;7.90;41.70;;;;;;5075982;28;20481;-62
2022/03/11 09:10:14;;;;;;;14.80;8.83;;;8.00;41.40;;;;;;5058601;28;20381;-62
2022/03/11 09:12:40;;;;;;;14.87;9.47;;;8.00;41.50;;;;;;5075602;28;20044;-62
2022/03/11 09:15:07;;;;;;;18.37;9.07;;;7.90;41.50;;;;;;5075342;28;20044;-62
2022/03/11 09:17:34;;;;;;;14.30;8.30;;;7.90;42.20;;;;;;5074988;28;20485;-62
2022/03/11 09:20:03;;;;;;;15.63;9.20;;;7.90;42.40;;;;;;5075610;28;20094;-62
2022/03/11 09:22:31;;;;;;;23.10;10.03;;;7.90;42.00;;;;;;5075948;28;20036;-66
2022/03/11 09:24:58;;;;;;;14.17;9.57;;;7.90;42.20;;;;;;5076080;28;20029;-60
2022/03/11 09:27:24;;;;;;;16.63;9.03;;;8.00;41.50;;;;;;5075120;28;20108;-62
2022/03/11 09:29:51;;;;;;;21.13;9.70;;;8.00;42.10;;;;;;5075606;28;20400;-64
2022/03/11 09:32:16;;;;;;;15.47;9.33;;;8.00;43.30;;;;;;5075587;28;20056;-62
2022/03/11 09:34:43;;;;;;;17.83;8.83;;;8.00;42.80;;;;;;5075500;28;20040;-62
2022/03/11 09:37:10;;;;;;;13.17;9.10;;;7.90;42.20;;;;;;5075674;28;20032;-61
2022/03/11 09:39:36;;;;;;;17.27;9.17;;;8.00;41.90;;;;;;5075133;28;20083;-61
2022/03/11 09:42:03;;;;;;;15.93;8.50;;;8.00;41.50;;;;;;5075238;28;20053;-62
2022/03/11 09:44:29;;;;;;;13.70;8.67;;;8.00;41.90;;;;;;5075501;28;20107;-61
2022/03/11 09:46:55;;;;;;;15.87;8.67;;;8.00;41.60;;;;;;5075452;28;20111;-66
2022/03/11 09:49:21;;;;;;;14.37;8.77;;;8.00;41.80;;;;;;5075151;28;20036;-61
2022/03/11 09:51:47;;;;;;;15.70;8.50;;;8.00;41.10;;;;;;5075388;28;20028;-61
2022/03/11 09:54:13;;;;;;;21.03;9.20;;;8.00;41.70;;;;;;5075354;28;20111;-61
2022/03/11 09:56:41;;;;;;;23.00;8.83;;;8.00;40.90;;;;;;5075496;28;20033;-62
2022/03/11 09:59:11;;;;;;;13.80;8.50;;;8.00;41.00;;;;;;5075009;28;20082;-62
2022/03/11 10:01:38;;;;;;;13.93;8.00;;;8.00;41.40;;;;;;5075110;28;20039;-62
2022/03/11 10:04:05;;;;;;;15.90;8.10;;;8.00;41.20;;;;;;5074900;28;20435;-62
2022/03/11 10:06:46;;;;;;;15.80;8.30;;;8.00;40.50;;;;;;5075125;28;20031;-61
2022/03/11 10:09:18;;;;;;;16.80;8.77;;;8.10;41.00;;;;;;5075303;28;20025;-62
2022/03/11 10:11:51;;;;;;;15.87;8.07;;;8.10;41.70;;;;;;5074747;28;20052;-61
2022/03/11 10:14:17;;;;;;;22.97;8.73;;;8.10;41.10;;;;;;5075058;28;20111;-61
2022/03/11 10:16:46;;;;;;;14.33;7.90;;;8.10;40.20;;;;;;5075079;28;20090;-62
2022/03/11 10:19:13;;;;;;;12.60;8.50;;;8.10;40.10;;;;;;5074068;28;20044;-61
2022/03/11 10:21:40;;;;;;;15.33;8.20;;;8.10;40.20;;;;;;5074839;28;20036;-61
2022/03/11 10:24:08;;;;;;;21.43;8.37;;;8.10;40.00;;;;;;5074974;28;20033;-60
2022/03/11 10:26:39;;;;;;;16.23;8.23;;;8.00;39.90;;;;;;5074754;28;20031;-61
2022/03/11 10:29:08;;;;;;;15.83;8.50;;;8.10;39.80;;;;;;5074415;28;20119;-61
2022/03/11 10:31:36;;;;;;;15.13;8.50;;;8.10;39.40;;;;;;5074511;28;20029;-62
2022/03/11 10:34:17;;;;;;;13.13;8.37;;;8.10;39.10;;;;;;5074532;28;20183;-61
2022/03/11 10:36:55;;;;;;;14.80;8.40;;;8.10;39.30;;;;;;5073942;28;20487;-61
2022/03/11 10:39:26;;;;;;;14.63;7.97;;;8.10;39.70;;;;;;5073933;28;20036;-62
2022/03/11 10:41:53;;;;;;;18.57;8.30;;;8.00;39.70;;;;;;5073650;28;20134;-62
2022/03/11 10:44:26;;;;;;;16.17;8.43;;;8.00;39.50;;;;;;5072848;28;20043;-62
2022/03/11 10:46:53;;;;;;;22.15;8.80;;;8.10;39.30;;;;;;5072499;28;20048;-62
2022/03/11 10:49:33;;;;;;;15.57;8.87;;;8.00;39.90;;;;;;5072846;28;20106;-61
2022/03/11 10:52:02;;;;;;;13.33;9.77;;;8.00;39.80;;;;;;5073021;28;20456;-62
2022/03/11 10:54:29;;;;;;;17.50;9.77;;;8.00;39.70;;;;;;5073104;28;20568;-62
2022/03/11 10:57:06;;;;;;;16.20;10.30;;;8.00;39.50;;;;;;5081677;28;20033;-62
2022/03/11 10:59:32;;;;;;;16.73;10.20;;;8.00;39.80;;;;;;5078953;28;20484;-63
2022/03/11 11:01:58;;;;;;;17.80;10.10;;;7.90;40.60;;;;;;5081066;28;20029;-67
2022/03/11 11:04:25;;;;;;;13.37;8.33;;;8.00;40.50;;;;;;5082842;28;20024;-67
2022/03/11 11:06:51;;;;;;;14.07;8.80;;;8.00;40.10;;;;;;5082246;28;20128;-62
2022/03/11 11:09:18;;;;;;;15.07;9.23;;;8.00;39.70;;;;;;5083695;28;20036;-62
2022/03/11 11:11:45;;;;;;;14.30;8.60;;;8.00;39.40;;;;;;5083753;28;20028;-61
2022/03/11 11:14:12;;;;;;;15.00;8.57;;;8.10;39.10;;;;;;5081912;28;20446;-61
2022/03/11 11:16:40;;;;;;;13.87;9.03;;;8.10;39.60;;;;;;5083266;28;20031;-67
2022/03/11 11:19:14;;;;;;;14.27;8.73;;;8.00;39.30;;;;;;5084217;28;20071;-62
2022/03/11 11:21:43;;;;;;;13.53;9.17;;;8.10;39.10;;;;;;5087111;28;20040;-62
2022/03/11 11:24:15;;;;;;;15.87;8.50;;;8.10;40.20;;;;;;5083404;28;20046;-62
2022/03/11 11:26:46;;;;;;;25.40;9.57;;;8.00;39.70;;;;;;5069609;28;20039;-62
2022/03/11 11:29:13;;;;;;;17.40;8.90;;;8.00;39.40;;;;;;5078897;28;20534;-62
2022/03/11 11:31:41;;;;;;;15.70;9.10;;;8.00;39.60;;;;;;5091795;28;20032;-62
2022/03/11 11:34:37;;;;;;;15.03;8.07;;;8.10;38.80;;;;;;5091334;28;20036;-62
2022/03/11 11:37:06;;;;;;;17.53;8.10;;;8.00;39.20;;;;;;5084513;28;20040;-62
2022/03/11 11:39:42;;;;;;;11.07;8.13;;;8.00;39.50;;;;;;5093490;28;20048;-61
2022/03/11 11:42:10;;;;;;;13.30;8.20;;;8.00;39.30;;;;;;5092660;28;20073;-62
2022/03/11 11:44:41;;;;;;;15.03;8.10;;;8.00;39.10;;;;;;5093159;28;20046;-62
2022/03/11 11:47:16;;;;;;;13.07;8.27;;;8.00;38.70;;;;;;5091584;28;20111;-62
2022/03/11 11:49:54;;;;;;;13.40;8.50;;;8.00;38.90;;;;;;5093203;28;20044;-62
2022/03/11 11:52:36;;;;;;;14.73;9.00;;;8.00;39.10;;;;;;5093423;28;20028;-62
2022/03/11 11:55:19;;;;;;;16.60;9.70;;;8.00;39.20;;;;;;5093308;28;20484;-62
2022/03/11 11:57:46;;;;;;;17.87;9.20;;;8.00;38.90;;;;;;5092985;28;20048;-62
2022/03/11 12:00:27;;;;;;;14.77;9.03;;;8.00;39.20;;;;;;5092970;28;20039;-67
2022/03/11 12:02:54;;;;;;;16.23;8.60;;;8.00;39.20;;;;;;5093261;28;20036;-62
2022/03/11 12:05:41;;;;;;;17.57;8.63;;;8.10;38.70;;;;;;5093077;28;20024;-62
2022/03/11 12:08:07;;;;;;;13.87;8.70;;;8.10;38.80;;;;;;5092747;28;20036;-66
2022/03/11 12:10:33;;;;;;;12.97;8.70;;;8.10;39.10;;;;;;5092991;28;20028;-62
2022/03/11 12:13:01;;;;;;;19.77;9.53;;;8.00;39.50;;;;;;5091367;28;20048;-62
2022/03/11 12:15:31;;;;;;;14.07;8.70;;;8.00;39.70;;;;;;5090577;28;20048;-62
2022/03/11 12:18:00;;;;;;;16.07;9.50;;;8.00;39.70;;;;;;5090943;28;20044;-62
2022/03/11 12:20:31;;;;;;;15.93;8.93;;;8.00;40.30;;;;;;5084702;28;20077;-66
2022/03/11 12:23:00;;;;;;;15.80;8.90;;;8.10;39.80;;;;;;5082606;28;20041;-62
2022/03/11 12:25:35;;;;;;;16.33;9.13;;;8.10;39.50;;;;;;5077724;28;20032;-67
2022/03/11 12:28:03;;;;;;;20.40;10.03;;;8.10;40.20;;;;;;5079534;28;20410;-62
2022/03/11 12:30:53;;;;;;;18.00;9.90;;;8.10;39.80;;;;;;5079305;28;20420;-62
2022/03/11 12:33:22;;;;;;;14.50;9.53;;;8.10;39.80;;;;;;5083860;28;20048;-63
2022/03/11 12:35:51;;;;;;;13.60;9.73;;;8.10;39.40;;;;;;5088285;28;20032;-62
2022/03/11 12:38:20;;;;;;;20.10;9.33;;;8.10;39.40;;;;;;5080515;28;20076;-62
2022/03/11 12:40:47;;;;;;;15.53;9.50;;;8.10;39.20;;;;;;5079246;28;20036;-62
2022/03/11 12:43:15;;;;;;;15.03;8.73;;;8.10;39.50;;;;;;5082531;28;20036;-62
2022/03/11 12:45:51;;;;;;;14.10;9.73;;;8.10;40.30;;;;;;5084919;28;20073;-67
2022/03/11 12:48:20;;;;;;;20.23;9.77;;;8.10;40.30;;;;;;5094851;28;20495;-64
2022/03/11 12:50:47;;;;;;;18.57;9.70;;;8.20;40.80;;;;;;5088686;28;20063;-67
2022/03/11 12:53:15;;;;;;;15.47;10.07;;;8.10;42.00;;;;;;5075583;28;20637;-67
2022/03/11 12:55:44;;;;;;;15.80;10.13;;;8.20;41.20;;;;;;5075465;28;20449;-67